createdAt,value
2018-03-20T00:01:23.335Z,14.83
2018-03-20T00:03:50.898Z,18.30
2018-03-20T00:06:18.487Z,22.17
2018-03-20T00:08:46.486Z,23.27
2018-03-20T00:11:14.098Z,27.77
2018-03-20T00:13:42.255Z,26.30
2018-03-20T00:16:09.834Z,23.23
2018-03-20T00:18:37.436Z,24.03
2018-03-20T00:21:05.001Z,24.83
2018-03-20T00:23:32.552Z,23.73
2018-03-20T00:26:00.170Z,24.07
2018-03-20T00:28:28.449Z,23.97
2018-03-20T00:30:56.045Z,22.37
2018-03-20T00:33:23.601Z,23.10
2018-03-20T00:35:51.201Z,26.20
2018-03-20T00:38:18.976Z,27.77
2018-03-20T00:40:46.568Z,22.70
2018-03-20T00:43:14.805Z,25.57
2018-03-20T00:45:42.409Z,22.67
2018-03-20T00:48:10.017Z,28.47
2018-03-20T00:50:37.629Z,24.60
2018-03-20T00:53:05.188Z,25.47
2018-03-20T00:55:33.006Z,23.97
2018-03-20T00:58:00.615Z,28.50
2018-03-20T01:00:28.212Z,25.53
2018-03-20T01:02:56.633Z,24.70
2018-03-20T01:05:24.237Z,24.20
2018-03-20T01:07:51.816Z,22.47
2018-03-20T01:10:19.455Z,22.70
2018-03-20T01:12:47.533Z,30.10
2018-03-20T01:15:15.474Z,35.77
2018-03-20T01:17:43.048Z,37.77
2018-03-20T01:20:10.591Z,36.70
2018-03-20T01:22:38.201Z,32.07
2018-03-20T01:25:05.769Z,31.70
2018-03-20T01:27:33.355Z,26.77
2018-03-20T01:30:00.911Z,27.17
2018-03-20T01:32:28.516Z,25.47
2018-03-20T01:34:56.064Z,21.13
2018-03-20T01:37:23.635Z,23.73
2018-03-20T01:39:51.577Z,16.70
2018-03-20T01:42:19.136Z,21.77
2018-03-20T01:44:46.747Z,16.87
2018-03-20T01:47:14.299Z,15.00
2018-03-20T01:49:41.896Z,15.70
2018-03-20T01:52:09.515Z,14.53
2018-03-20T01:54:37.059Z,11.80
2018-03-20T01:57:04.615Z,14.77
2018-03-20T01:59:32.243Z,13.60
2018-03-20T02:02:00.169Z,11.80
2018-03-20T02:04:27.746Z,11.83
2018-03-20T02:06:55.309Z,11.63
2018-03-20T02:09:23.262Z,9.60
2018-03-20T02:11:51.193Z,11.00
2018-03-20T02:14:18.805Z,10.20
2018-03-20T02:16:46.377Z,11.77
2018-03-20T02:19:13.968Z,11.23
2018-03-20T02:21:41.561Z,10.47
2018-03-20T02:24:09.144Z,9.80
2018-03-20T02:26:36.732Z,9.63
2018-03-20T02:29:04.280Z,9.33
2018-03-20T02:31:32.229Z,8.47
2018-03-20T02:33:59.798Z,9.77
2018-03-20T02:36:27.380Z,9.93
2018-03-20T02:38:54.936Z,11.17
2018-03-20T02:41:23.168Z,13.30
2018-03-20T02:43:51.034Z,11.57
2018-03-20T02:46:22.615Z,10.07
2018-03-20T02:48:50.209Z,9.97
2018-03-20T02:51:17.755Z,10.87
2018-03-20T02:53:45.352Z,12.50
2018-03-20T02:56:13.183Z,14.33
2018-03-20T02:58:40.775Z,13.40
2018-03-20T03:01:08.321Z,12.17
2018-03-20T03:03:35.926Z,13.27
2018-03-20T03:06:03.477Z,9.67
2018-03-20T03:08:31.086Z,10.17
2018-03-20T03:10:58.628Z,13.77
2018-03-20T03:13:26.227Z,10.97
2018-03-20T03:15:53.783Z,10.77
2018-03-20T03:18:21.328Z,9.43
2018-03-20T03:20:48.918Z,12.10
2018-03-20T03:23:16.460Z,10.33
2018-03-20T03:25:44.003Z,9.77
2018-03-20T03:28:12.032Z,11.10
2018-03-20T03:30:40.024Z,11.83
2018-03-20T03:33:07.676Z,11.57
2018-03-20T03:35:35.228Z,11.83
2018-03-20T03:38:03.492Z,10.20
2018-03-20T03:40:31.032Z,10.47
2018-03-20T03:42:58.629Z,10.17
2018-03-20T03:45:26.205Z,11.87
2018-03-20T03:47:54.619Z,9.83
2018-03-20T03:50:22.170Z,9.90
2018-03-20T03:52:49.719Z,11.40
2018-03-20T03:55:17.311Z,9.57
2018-03-20T03:57:44.861Z,9.40
2018-03-20T04:00:12.468Z,8.27
2018-03-20T04:02:40.257Z,10.43
2018-03-20T04:05:07.861Z,9.97
2018-03-20T04:07:35.810Z,7.93
2018-03-20T04:10:03.397Z,8.80
2018-03-20T04:12:31.109Z,7.60
2018-03-20T04:14:59.101Z,7.37
2018-03-20T04:17:26.692Z,7.50
2018-03-20T04:19:54.240Z,7.10
2018-03-20T04:22:21.833Z,7.27
2018-03-20T04:24:49.380Z,6.20
2018-03-20T04:27:17.027Z,5.73
2018-03-20T04:29:44.581Z,5.23
2018-03-20T04:32:12.110Z,5.90
2018-03-20T04:34:39.696Z,5.17
2018-03-20T04:37:08.057Z,6.13
2018-03-20T04:39:35.598Z,4.80
2018-03-20T04:42:03.902Z,4.53
2018-03-20T04:44:31.445Z,5.20
2018-03-20T04:46:59.035Z,4.83
2018-03-20T04:49:27.042Z,5.77
2018-03-20T04:51:54.579Z,5.00
2018-03-20T04:54:22.159Z,8.70
2018-03-20T04:56:49.715Z,5.47
2018-03-20T04:59:17.336Z,5.63
2018-03-20T05:01:45.179Z,12.40
2018-03-20T05:04:12.769Z,12.50
2018-03-20T05:06:40.368Z,6.40
2018-03-20T05:09:07.908Z,9.10
2018-03-20T05:11:35.496Z,10.27
2018-03-20T05:14:03.096Z,9.63
2018-03-20T05:16:30.673Z,9.63
2018-03-20T05:18:59.226Z,10.00
2018-03-20T05:21:29.607Z,10.17
2018-03-20T05:23:57.656Z,9.67
2018-03-20T05:26:25.223Z,10.23
2018-03-20T05:28:52.798Z,11.93
2018-03-20T05:31:20.371Z,9.32
2018-03-20T05:33:48.342Z,11.13
2018-03-20T05:36:15.952Z,10.23
2018-03-20T05:38:44.512Z,8.83
2018-03-20T05:41:13.508Z,11.93
2018-03-20T05:43:42.281Z,10.93
2018-03-20T05:46:09.888Z,13.17
2018-03-20T05:48:54.400Z,14.30
2018-03-20T05:54:24.573Z,12.73
2018-03-20T05:56:52.472Z,14.57
2018-03-20T05:59:20.100Z,14.77
2018-03-20T06:01:48.139Z,15.70
2018-03-20T06:04:16.701Z,13.07
2018-03-20T06:06:44.381Z,12.30
2018-03-20T06:09:12.150Z,17.97
2018-03-20T06:11:39.909Z,19.63
2018-03-20T06:14:07.544Z,23.03
2018-03-20T06:16:35.109Z,20.23
2018-03-20T06:19:03.506Z,26.10
2018-03-20T06:21:31.884Z,25.93
2018-03-20T06:23:59.545Z,34.57
2018-03-20T06:26:27.156Z,28.58
2018-03-20T06:28:54.733Z,31.27
2018-03-20T06:31:22.284Z,28.40
2018-03-20T06:33:49.885Z,23.50
2018-03-20T06:36:17.880Z,23.53
2018-03-20T06:38:45.442Z,22.13
2018-03-20T06:41:13.134Z,25.90
2018-03-20T06:43:40.700Z,15.93
2018-03-20T06:46:08.874Z,19.45
2018-03-20T06:48:36.480Z,20.03
2018-03-20T06:51:04.067Z,16.50
2018-03-20T06:53:31.786Z,16.97
2018-03-20T06:56:00.567Z,19.23
2018-03-20T06:58:29.636Z,14.27
2018-03-20T07:00:57.323Z,13.33
2018-03-20T07:03:24.921Z,12.40
2018-03-20T07:05:52.991Z,17.47
2018-03-20T07:08:20.900Z,16.63
2018-03-20T07:10:48.468Z,12.93
2018-03-20T07:13:16.428Z,15.83
2018-03-20T07:15:43.998Z,13.40
2018-03-20T07:18:12.466Z,13.17
2018-03-20T07:20:41.288Z,13.87
2018-03-20T07:23:09.905Z,12.93
2018-03-20T07:25:38.979Z,12.50
2018-03-20T07:28:06.589Z,10.30
2018-03-20T07:30:34.180Z,13.93
2018-03-20T07:33:02.255Z,10.73
2018-03-20T07:35:29.886Z,10.90
2018-03-20T07:37:57.457Z,11.30
2018-03-20T07:40:25.964Z,11.10
2018-03-20T07:42:53.519Z,13.47
2018-03-20T07:45:21.140Z,8.85
2018-03-20T07:47:48.688Z,8.77
2018-03-20T07:50:16.323Z,11.03
2018-03-20T07:52:44.053Z,10.53
2018-03-20T07:55:12.654Z,7.50
2018-03-20T07:57:40.778Z,7.05
2018-03-20T08:00:09.784Z,9.53
2018-03-20T08:02:37.370Z,6.57
2018-03-20T08:05:05.298Z,5.60
2018-03-20T08:07:32.861Z,7.97
2018-03-20T08:10:01.130Z,8.73
2018-03-20T08:12:28.712Z,8.67
2018-03-20T08:14:56.363Z,9.48
2018-03-20T08:17:23.935Z,8.15
2018-03-20T08:19:51.529Z,9.47
2018-03-20T08:22:19.616Z,14.63
2018-03-20T08:24:48.048Z,10.63
2018-03-20T08:27:16.930Z,11.10
2018-03-20T08:29:44.497Z,8.23
2018-03-20T08:32:12.768Z,9.85
2018-03-20T08:34:40.512Z,10.73
2018-03-20T08:37:08.125Z,5.90
2018-03-20T08:39:35.893Z,7.13
2018-03-20T08:42:03.476Z,7.70
2018-03-20T08:44:31.088Z,6.63
2018-03-20T08:46:58.757Z,8.23
2018-03-20T08:49:26.916Z,9.95
2018-03-20T08:51:54.990Z,8.27
2018-03-20T08:54:23.092Z,6.17
2018-03-20T08:56:50.639Z,6.97
2018-03-20T08:59:18.342Z,5.87
2018-03-20T09:01:46.497Z,9.02
2018-03-20T09:04:14.199Z,6.97
2018-03-20T09:06:42.075Z,9.63
2018-03-20T09:09:09.624Z,8.83
2018-03-20T09:11:37.470Z,7.00
2018-03-20T09:14:05.020Z,8.30
2018-03-20T09:16:32.640Z,9.40
2018-03-20T09:19:01.182Z,8.20
2018-03-20T09:21:28.788Z,9.65
2018-03-20T09:23:56.528Z,8.53
2018-03-20T09:26:24.085Z,10.10
2018-03-20T09:28:52.480Z,8.10
2018-03-20T09:31:20.445Z,9.40
2018-03-20T09:33:48.214Z,10.20
2018-03-20T09:36:16.171Z,8.88
2018-03-20T09:38:43.952Z,11.93
2018-03-20T09:41:11.809Z,10.50
2018-03-20T09:43:39.378Z,13.27
2018-03-20T09:46:06.980Z,9.38
2018-03-20T09:48:34.534Z,10.13
2018-03-20T09:51:02.838Z,12.07
2018-03-20T09:53:30.443Z,10.60
2018-03-20T09:55:58.000Z,9.63
2018-03-20T09:58:26.504Z,9.15
2018-03-20T10:00:55.644Z,9.98
2018-03-20T10:03:23.827Z,11.77
2018-03-20T10:05:52.779Z,9.40
2018-03-20T10:08:20.520Z,11.97
2018-03-20T10:10:48.062Z,11.33
2018-03-20T10:13:15.657Z,16.33
2018-03-20T10:15:43.258Z,10.33
2018-03-20T10:18:10.871Z,21.87
2018-03-20T10:20:39.349Z,11.67
2018-03-20T10:23:07.164Z,13.90
2018-03-20T10:25:34.893Z,13.60
2018-03-20T10:28:02.436Z,8.57
2018-03-20T10:30:30.117Z,12.85
2018-03-20T10:32:57.986Z,11.73
2018-03-20T10:35:25.611Z,11.83
2018-03-20T10:37:53.270Z,25.83
2018-03-20T10:40:20.886Z,17.27
2018-03-20T10:42:48.492Z,14.67
2018-03-20T10:45:16.116Z,13.50
2018-03-20T10:47:43.673Z,12.47
2018-03-20T10:50:11.362Z,9.83
2018-03-20T10:52:39.098Z,13.87
2018-03-20T10:55:06.722Z,17.40
2018-03-20T10:57:34.949Z,10.43
2018-03-20T11:00:02.512Z,12.50
2018-03-20T11:02:32.083Z,12.23
2018-03-20T11:05:00.051Z,8.67
2018-03-20T11:07:27.612Z,12.02
2018-03-20T11:09:55.208Z,8.77
2018-03-20T11:12:22.830Z,12.68
2018-03-20T11:14:50.446Z,7.37
2018-03-20T11:17:19.198Z,10.00
2018-03-20T11:19:46.801Z,8.27
2018-03-20T11:22:14.364Z,10.85
2018-03-20T11:24:42.211Z,9.85
2018-03-20T11:27:09.767Z,7.37
2018-03-20T11:29:37.764Z,9.93
2018-03-20T11:32:05.330Z,8.37
2018-03-20T11:34:32.945Z,8.90
2018-03-20T11:37:01.627Z,9.63
2018-03-20T11:39:29.367Z,9.10
2018-03-20T11:41:57.594Z,8.03
2018-03-20T11:44:25.166Z,11.27
2018-03-20T11:46:52.973Z,8.20
2018-03-20T11:49:20.583Z,8.40
2018-03-20T11:51:48.145Z,7.80
2018-03-20T11:54:16.104Z,7.40
2018-03-20T11:56:44.037Z,9.87
2018-03-20T11:59:11.637Z,9.43
2018-03-20T12:01:39.394Z,16.10
2018-03-20T12:04:07.058Z,12.53
2018-03-20T12:06:34.698Z,10.87
2018-03-20T12:09:12.144Z,9.27
2018-03-20T12:11:39.834Z,9.73
2018-03-20T12:14:07.394Z,9.37
2018-03-20T12:16:35.178Z,11.38
2018-03-20T12:19:03.025Z,10.07
2018-03-20T12:21:30.582Z,9.32
2018-03-20T12:23:58.193Z,11.00
2018-03-20T12:26:25.764Z,9.70
2018-03-20T12:28:53.395Z,10.40
2018-03-20T12:31:20.998Z,9.20
2018-03-20T12:33:48.770Z,8.48
2018-03-20T12:36:16.336Z,11.83
2018-03-20T12:38:43.931Z,7.13
2018-03-20T12:41:11.735Z,8.30
2018-03-20T12:43:39.332Z,7.83
2018-03-20T12:46:07.289Z,10.97
2018-03-20T12:48:35.045Z,6.87
2018-03-20T12:51:02.602Z,10.03
2018-03-20T12:53:40.447Z,11.23
2018-03-20T12:56:08.058Z,6.73
2018-03-20T12:58:36.348Z,9.20
2018-03-20T13:01:03.981Z,8.77
2018-03-20T13:03:31.562Z,9.43
2018-03-20T13:05:59.202Z,9.83
2018-03-20T13:08:27.074Z,8.87
2018-03-20T13:10:54.672Z,9.20
2018-03-20T13:13:22.488Z,9.17
2018-03-20T13:15:50.061Z,7.97
2018-03-20T13:18:17.656Z,8.07
2018-03-20T13:20:45.209Z,7.93
2018-03-20T13:23:12.931Z,10.57
2018-03-20T13:25:40.699Z,11.03
2018-03-20T13:28:08.286Z,10.23
2018-03-20T13:30:35.939Z,7.43
2018-03-20T13:33:03.542Z,11.87
2018-03-20T13:35:31.133Z,9.37
2018-03-20T13:37:58.713Z,11.53
2018-03-20T13:40:26.312Z,10.97
2018-03-20T13:42:53.856Z,7.83
2018-03-20T13:45:21.465Z,8.63
2018-03-20T13:47:49.054Z,10.75
2018-03-20T13:50:16.819Z,7.03
2018-03-20T13:52:49.144Z,9.47
2018-03-20T13:55:12.190Z,9.15
2018-03-20T13:57:39.779Z,9.93
2018-03-20T14:00:07.491Z,7.47
2018-03-20T14:02:35.136Z,9.70
2018-03-20T14:05:02.736Z,9.13
2018-03-20T14:07:30.517Z,7.40
2018-03-20T14:09:58.139Z,11.53
2018-03-20T14:12:25.692Z,7.43
2018-03-20T14:14:53.300Z,11.23
2018-03-20T14:17:20.897Z,10.37
2018-03-20T14:19:48.728Z,29.83
2018-03-20T14:22:16.498Z,19.97
2018-03-20T14:24:44.244Z,18.93
2018-03-20T14:27:12.818Z,19.77
2018-03-20T14:29:41.187Z,15.43
2018-03-20T14:32:09.252Z,21.40
2018-03-20T14:34:37.195Z,14.03
2018-03-20T14:37:04.965Z,14.48
2018-03-20T14:39:33.026Z,16.03
2018-03-20T14:42:00.576Z,13.03
2018-03-20T14:44:28.875Z,17.20
2018-03-20T14:46:56.439Z,19.73
2018-03-20T14:49:24.495Z,15.87
2018-03-20T14:51:52.069Z,16.30
2018-03-20T14:54:19.686Z,19.97
2018-03-20T14:56:47.232Z,17.47
2018-03-20T14:59:15.716Z,15.73
2018-03-20T15:01:44.660Z,12.93
2018-03-20T15:04:12.274Z,13.83
2018-03-20T15:06:39.850Z,15.13
2018-03-20T15:09:07.635Z,20.90
2018-03-20T15:11:35.490Z,19.27
2018-03-20T15:14:03.079Z,13.57
2018-03-20T15:16:30.681Z,13.87
2018-03-20T15:18:58.250Z,18.23
2018-03-20T15:21:26.544Z,18.00
2018-03-20T15:23:54.101Z,14.77
2018-03-20T15:26:22.379Z,17.90
2018-03-20T15:28:50.286Z,14.43
2018-03-20T15:31:18.363Z,17.57
2018-03-20T15:33:45.964Z,18.00
2018-03-20T15:36:13.565Z,16.77
2018-03-20T15:38:41.115Z,10.03
2018-03-20T15:41:09.101Z,10.77
2018-03-20T15:43:36.729Z,13.03
2018-03-20T15:46:04.558Z,22.67
2018-03-20T15:48:32.419Z,15.90
2018-03-20T15:50:59.990Z,17.57
2018-03-20T15:53:27.777Z,23.23
2018-03-20T15:55:55.339Z,15.53
2018-03-20T15:58:22.915Z,18.73
2018-03-20T16:00:50.846Z,18.60
2018-03-20T16:03:18.805Z,18.90
2018-03-20T16:05:46.370Z,18.47
2018-03-20T16:08:14.340Z,19.03
2018-03-20T16:10:41.891Z,14.03
2018-03-20T16:13:09.505Z,19.93
2018-03-20T16:15:37.063Z,25.67
2018-03-20T16:18:04.652Z,24.57
2018-03-20T16:20:32.273Z,18.30
2018-03-20T16:23:01.445Z,12.57
2018-03-20T16:25:29.653Z,14.63
2018-03-20T16:27:57.503Z,15.97
2018-03-20T16:30:25.615Z,16.20
2018-03-20T16:32:53.758Z,26.80
2018-03-20T16:35:21.850Z,21.27
2018-03-20T16:37:50.323Z,13.77
2018-03-20T16:40:18.736Z,13.57
2018-03-20T16:42:46.987Z,14.77
2018-03-20T16:45:15.407Z,12.57
2018-03-20T16:47:44.918Z,18.57
2018-03-20T16:50:12.874Z,11.97
2018-03-20T16:52:41.104Z,18.83
2018-03-20T16:55:08.998Z,19.23
2018-03-20T16:57:37.043Z,14.60
2018-03-20T17:00:05.409Z,19.67
2018-03-20T17:02:33.787Z,26.77
2018-03-20T17:05:02.473Z,20.10
2018-03-20T17:07:30.666Z,23.47
2018-03-20T17:10:00.210Z,22.90
2018-03-20T17:12:29.447Z,23.37
2018-03-20T17:14:58.083Z,22.80
2018-03-20T17:17:27.896Z,22.70
2018-03-20T17:19:56.087Z,22.17
2018-03-20T17:22:25.222Z,23.50
2018-03-20T17:24:53.925Z,25.60
2018-03-20T17:27:22.191Z,26.73
2018-03-20T17:29:52.135Z,19.07
2018-03-20T17:32:21.341Z,42.00
2018-03-20T17:34:49.662Z,51.00
2018-03-20T17:37:18.464Z,55.80
2018-03-20T17:39:47.260Z,117.63
2018-03-20T17:42:16.149Z,45.73
2018-03-20T17:44:44.816Z,35.70
2018-03-20T17:47:13.522Z,25.93
2018-03-20T17:49:42.231Z,31.70
2018-03-20T17:52:10.577Z,45.60
2018-03-20T17:54:39.328Z,61.20
2018-03-20T17:57:07.542Z,62.33
2018-03-20T17:59:36.325Z,50.27
2018-03-20T18:02:04.968Z,53.63
2018-03-20T18:04:34.743Z,53.57
2018-03-20T18:07:03.612Z,61.37
2018-03-20T18:09:32.609Z,62.10
2018-03-20T18:12:02.514Z,121.53
2018-03-20T18:17:03.630Z,84.90
2018-03-20T18:19:32.250Z,100.47
2018-03-20T18:22:00.746Z,112.47
2018-03-20T18:24:29.144Z,103.13
2018-03-20T18:26:57.335Z,129.27
2018-03-20T18:29:26.078Z,170.03
2018-03-20T18:31:55.379Z,148.23
2018-03-20T18:34:24.007Z,122.93
2018-03-20T18:36:53.147Z,112.23
2018-03-20T18:39:22.929Z,107.70
2018-03-20T18:41:54.371Z,118.73
2018-03-20T18:44:22.803Z,126.80
2018-03-20T18:46:51.358Z,127.27
2018-03-20T18:49:20.886Z,115.83
2018-03-20T18:51:50.088Z,109.90
2018-03-20T18:54:18.386Z,90.23
2018-03-20T18:56:48.312Z,75.53
2018-03-20T18:59:16.555Z,59.50
2018-03-20T19:01:44.621Z,80.63
2018-03-20T19:04:13.822Z,92.57
2018-03-20T19:06:42.509Z,63.63
2018-03-20T19:09:11.620Z,66.27
2018-03-20T19:11:41.720Z,77.40
2018-03-20T19:14:09.977Z,71.07
2018-03-20T19:16:38.117Z,68.13
2018-03-20T19:19:08.042Z,70.33
2018-03-20T19:21:37.437Z,62.70
2018-03-20T19:24:05.567Z,62.77
2018-03-20T19:26:33.818Z,61.37
2018-03-20T19:29:03.610Z,53.23
2018-03-20T19:31:32.117Z,58.63
2018-03-20T19:34:00.458Z,58.40
2018-03-20T19:36:28.792Z,51.07
2018-03-20T19:38:58.974Z,53.13
2018-03-20T19:41:29.326Z,59.03
2018-03-20T19:44:00.412Z,49.77
2018-03-20T19:46:29.405Z,47.73
2018-03-20T19:48:59.683Z,53.17
2018-03-20T19:51:29.764Z,46.37
2018-03-20T19:53:59.193Z,44.20
2018-03-20T19:56:28.191Z,44.07
2018-03-20T19:58:57.443Z,40.37
2018-03-20T20:01:25.693Z,41.27
2018-03-20T20:03:54.688Z,50.30
2018-03-20T20:06:22.926Z,41.53
2018-03-20T20:08:51.703Z,40.70
2018-03-20T20:11:21.529Z,42.77
2018-03-20T20:13:50.217Z,43.03
2018-03-20T20:16:19.518Z,36.90
2018-03-20T20:18:47.894Z,41.73
2018-03-20T20:21:16.889Z,31.60
2018-03-20T20:23:45.878Z,32.00
2018-03-20T20:26:14.207Z,35.27
2018-03-20T20:28:42.416Z,29.60
2018-03-20T20:31:10.801Z,32.80
2018-03-20T20:33:41.183Z,32.50
2018-03-20T20:36:10.844Z,32.50
2018-03-20T20:38:39.875Z,33.90
2018-03-20T20:41:08.114Z,31.60
2018-03-20T20:43:36.582Z,31.53
2018-03-20T20:46:06.396Z,29.87
2018-03-20T20:48:34.446Z,27.87
2018-03-20T20:51:03.005Z,28.77
2018-03-20T20:53:31.096Z,27.37
2018-03-20T20:55:58.902Z,30.17
2018-03-20T20:58:26.518Z,24.63
2018-03-20T21:00:54.155Z,27.93
2018-03-20T21:03:22.849Z,26.17
2018-03-20T21:05:50.701Z,24.80
2018-03-20T21:08:18.553Z,24.37
2018-03-20T21:10:46.467Z,22.97
2018-03-20T21:13:14.040Z,23.33
2018-03-20T21:15:41.613Z,22.00
2018-03-20T21:18:10.434Z,24.47
2018-03-20T21:20:38.043Z,23.13
2018-03-20T21:23:06.445Z,24.63
2018-03-20T21:25:34.007Z,26.00
2018-03-20T21:28:02.624Z,21.63
2018-03-20T21:30:30.395Z,24.10
2018-03-20T21:32:58.644Z,20.20
2018-03-20T21:35:26.222Z,20.70
2018-03-20T21:37:55.657Z,20.23
2018-03-20T21:40:23.261Z,19.40
2018-03-20T21:42:50.824Z,21.27
2018-03-20T21:45:18.926Z,19.63
2018-03-20T21:47:47.110Z,18.83
2018-03-20T21:50:14.676Z,18.17
2018-03-20T21:52:43.468Z,17.67
2018-03-20T21:55:11.399Z,17.47
2018-03-20T21:57:38.977Z,15.17
2018-03-20T22:00:06.617Z,17.13
2018-03-20T22:02:35.008Z,16.17
2018-03-20T22:05:02.585Z,20.13
2018-03-20T22:07:30.722Z,17.60
2018-03-20T22:09:58.281Z,14.07
2018-03-20T22:12:25.919Z,15.30
2018-03-20T22:14:53.521Z,17.07
2018-03-20T22:17:22.095Z,16.00
2018-03-20T22:19:49.898Z,15.77
2018-03-20T22:22:18.037Z,20.57
2018-03-20T22:24:46.517Z,14.97
2018-03-20T22:27:14.459Z,14.33
2018-03-20T22:29:42.035Z,16.93
2018-03-20T22:32:09.711Z,17.23
2018-03-20T22:34:37.661Z,16.57
2018-03-20T22:37:05.260Z,16.70
2018-03-20T22:39:33.138Z,16.67
2018-03-20T22:42:00.932Z,15.17
2018-03-20T22:44:28.548Z,15.87
2018-03-20T22:46:56.153Z,14.37
2018-03-20T22:49:24.158Z,15.73
2018-03-20T22:51:52.563Z,13.67
2018-03-20T22:54:20.174Z,14.90
2018-03-20T22:56:49.068Z,13.43
2018-03-20T22:59:18.016Z,12.67
2018-03-20T23:01:45.563Z,15.10
2018-03-20T23:04:13.171Z,12.93
2018-03-20T23:06:40.742Z,14.87
2018-03-20T23:09:08.873Z,13.63
2018-03-20T23:11:36.484Z,13.90
2018-03-20T23:14:04.341Z,13.97
2018-03-20T23:16:31.947Z,13.80
2018-03-20T23:18:59.549Z,19.13
2018-03-20T23:21:27.127Z,18.27
2018-03-20T23:23:54.722Z,15.87
2018-03-20T23:26:22.272Z,17.80
2018-03-20T23:28:49.867Z,16.37
2018-03-20T23:31:17.416Z,18.60
2018-03-20T23:33:44.973Z,18.70
2018-03-20T23:36:12.564Z,20.23
2018-03-20T23:38:40.127Z,18.47
2018-03-20T23:41:08.703Z,21.83
2018-03-20T23:43:36.286Z,24.63
2018-03-20T23:46:03.943Z,27.90
2018-03-20T23:48:31.540Z,29.63
2018-03-20T23:50:59.506Z,27.67
2018-03-20T23:53:27.076Z,29.63
2018-03-20T23:55:54.676Z,26.03
2018-03-20T23:58:22.277Z,28.33
